createdAt,value
2022-09-20T00:00:36.817Z,74.17
2022-09-20T00:01:38.664Z,74.32
2022-09-20T00:02:40.892Z,74.43
2022-09-20T00:03:45.890Z,73.77
2022-09-20T00:04:48.363Z,73.43
2022-09-20T00:05:50.425Z,73.45
2022-09-20T00:06:52.400Z,73.36
2022-09-20T00:07:55.086Z,72.83
2022-09-20T00:08:58.056Z,73.01
2022-09-20T00:10:02.112Z,72.54
2022-09-20T00:11:06.943Z,72.52
2022-09-20T00:12:09.409Z,72.43
2022-09-20T00:13:12.987Z,72.60
2022-09-20T00:14:15.115Z,72.60
2022-09-20T00:15:17.585Z,72.62
2022-09-20T00:16:25.022Z,72.99
2022-09-20T00:17:27.185Z,73.57
2022-09-20T00:18:29.256Z,73.68
2022-09-20T00:19:31.189Z,73.47
2022-09-20T00:20:33.566Z,73.16
2022-09-20T00:21:36.550Z,72.81
2022-09-20T00:22:39.028Z,72.79
2022-09-20T00:23:41.950Z,72.84
2022-09-20T00:24:48.725Z,72.47
2022-09-20T00:25:56.568Z,72.46
2022-09-20T00:26:58.790Z,72.62
2022-09-20T00:28:01.173Z,71.11
2022-09-20T00:29:03.606Z,71.11
2022-09-20T00:30:07.429Z,71.17
2022-09-20T00:31:10.905Z,71.38
2022-09-20T00:32:12.934Z,70.89
2022-09-20T00:33:15.271Z,70.74
2022-09-20T00:34:18.280Z,71.02
2022-09-20T00:35:20.877Z,70.62
2022-09-20T00:36:23.295Z,69.78
2022-09-20T00:37:25.441Z,69.78
2022-09-20T00:38:28.329Z,69.76
2022-09-20T00:39:30.317Z,69.43
2022-09-20T00:40:32.722Z,69.61
2022-09-20T00:41:34.736Z,69.78
2022-09-20T00:42:37.769Z,70.03
2022-09-20T00:43:43.096Z,70.61
2022-09-20T00:45:03.641Z,70.89
2022-09-20T00:46:27.315Z,71.16
2022-09-20T00:47:41.925Z,71.15
2022-09-20T00:48:44.052Z,71.56
2022-09-20T00:49:46.487Z,71.50
2022-09-20T00:51:01.317Z,71.70
2022-09-20T00:52:04.759Z,72.04
2022-09-20T00:53:14.373Z,71.16
2022-09-20T00:54:20.618Z,71.89
2022-09-20T00:55:24.251Z,71.94
2022-09-20T00:57:43.235Z,72.10
2022-09-20T00:58:51.721Z,72.07
2022-09-20T00:59:54.130Z,71.97
2022-09-20T01:00:57.401Z,71.54
2022-09-20T01:02:06.433Z,71.54
2022-09-20T01:03:12.722Z,70.98
2022-09-20T01:04:16.601Z,71.41
2022-09-20T01:05:19.540Z,71.06
2022-09-20T01:06:21.882Z,71.77
2022-09-20T01:07:24.995Z,71.99
2022-09-20T01:08:27.112Z,71.88
2022-09-20T01:09:29.116Z,72.11
2022-09-20T01:10:32.621Z,71.64
2022-09-20T01:11:37.280Z,71.49
2022-09-20T01:12:41.395Z,71.14
2022-09-20T01:13:43.393Z,70.73
2022-09-20T01:14:48.057Z,70.90
2022-09-20T01:15:52.738Z,70.91
2022-09-20T01:16:57.987Z,70.64
2022-09-20T01:18:03.234Z,70.54
2022-09-20T01:19:12.617Z,70.85
2022-09-20T01:20:33.894Z,70.77
2022-09-20T01:21:36.742Z,71.22
2022-09-20T01:22:54.338Z,71.25
2022-09-20T01:24:12.151Z,71.97
2022-09-20T01:25:24.563Z,71.79
2022-09-20T01:26:47.975Z,71.31
2022-09-20T01:27:51.948Z,71.17
2022-09-20T01:28:57.530Z,71.15
2022-09-20T01:30:03.124Z,71.06
2022-09-20T01:31:23.546Z,70.81
2022-09-20T01:32:30.423Z,71.40
2022-09-20T01:33:51.045Z,72.02
2022-09-20T01:34:57.631Z,72.01
2022-09-20T01:36:03.364Z,72.26
2022-09-20T01:37:21.248Z,72.11
2022-09-20T01:38:35.589Z,71.79
2022-09-20T01:40:10.506Z,71.86
2022-09-20T01:41:16.414Z,71.89
2022-09-20T01:42:22.492Z,71.52
2022-09-20T01:43:44.003Z,71.18
2022-09-20T01:45:20.751Z,71.18
2022-09-20T01:46:32.269Z,70.67
2022-09-20T01:48:01.991Z,70.33
2022-09-20T01:49:27.324Z,70.23
2022-09-20T01:50:59.883Z,69.48
2022-09-20T01:52:29.402Z,70.32
2022-09-20T01:53:35.012Z,70.70
2022-09-20T01:54:57.924Z,70.60
2022-09-20T01:56:29.556Z,70.69
2022-09-20T01:57:47.995Z,70.85
2022-09-20T01:59:24.075Z,71.12
2022-09-20T02:00:27.609Z,71.06
2022-09-20T02:01:36.772Z,70.94
2022-09-20T02:02:55.183Z,70.43
2022-09-20T02:04:17.553Z,70.27
2022-09-20T02:05:41.804Z,70.19
2022-09-20T02:07:07.100Z,70.61
2022-09-20T02:08:36.375Z,70.47
2022-09-20T02:09:54.267Z,70.55
2022-09-20T02:11:09.119Z,70.89
2022-09-20T02:12:37.430Z,70.75
2022-09-20T02:13:59.862Z,70.24
2022-09-20T02:15:34.819Z,69.89
2022-09-20T02:18:32.556Z,69.01
2022-09-20T02:19:55.945Z,69.46
2022-09-20T02:21:24.609Z,69.49
2022-09-20T02:22:45.789Z,69.63
2022-09-20T02:24:18.665Z,70.20
2022-09-20T02:25:33.031Z,70.40
2022-09-20T02:26:44.437Z,70.54
2022-09-20T02:27:53.083Z,70.47
2022-09-20T02:29:05.777Z,71.22
2022-09-20T02:30:31.696Z,71.84
2022-09-20T02:31:52.673Z,72.18
2022-09-20T02:33:22.657Z,72.45
2022-09-20T02:34:34.127Z,73.14
2022-09-20T02:35:51.278Z,73.23
2022-09-20T02:37:06.193Z,72.67
2022-09-20T02:38:33.343Z,72.15
2022-09-20T02:40:05.302Z,72.05
2022-09-20T02:41:17.202Z,71.27
2022-09-20T02:42:34.886Z,72.03
2022-09-20T02:43:57.312Z,72.66
2022-09-20T02:45:36.613Z,72.31
2022-09-20T02:46:42.418Z,72.27
2022-09-20T02:47:44.689Z,72.53
2022-09-20T02:49:05.654Z,72.90
2022-09-20T02:50:23.729Z,72.25
2022-09-20T02:51:35.445Z,70.90
2022-09-20T02:53:09.936Z,70.82
2022-09-20T02:54:33.989Z,71.38
2022-09-20T02:55:39.763Z,71.92
2022-09-20T02:56:48.718Z,72.45
2022-09-20T02:57:54.306Z,72.59
2022-09-20T02:59:03.230Z,72.31
2022-09-20T03:00:18.293Z,71.55
2022-09-20T03:01:46.587Z,70.68
2022-09-20T03:03:15.632Z,71.17
2022-09-20T03:04:45.327Z,72.09
2022-09-20T03:06:06.596Z,72.19
2022-09-20T03:07:24.742Z,72.69
2022-09-20T03:08:47.144Z,72.18
2022-09-20T03:10:10.950Z,72.03
2022-09-20T03:11:28.505Z,72.71
2022-09-20T03:13:01.580Z,73.07
2022-09-20T03:14:19.561Z,73.01
2022-09-20T03:15:29.406Z,72.45
2022-09-20T03:17:06.594Z,72.85
2022-09-20T03:18:18.034Z,73.17
2022-09-20T03:19:43.526Z,73.25
2022-09-20T03:21:06.291Z,73.43
2022-09-20T03:22:32.381Z,73.72
2022-09-20T03:23:53.247Z,74.07
2022-09-20T03:25:01.876Z,74.67
2022-09-20T03:26:13.536Z,74.70
2022-09-20T03:27:51.398Z,74.94
2022-09-20T03:29:09.315Z,74.62
2022-09-20T03:30:33.799Z,74.54
2022-09-20T03:33:11.532Z,74.79
2022-09-20T03:34:26.637Z,75.08
2022-09-20T03:35:55.365Z,74.99
2022-09-20T03:37:28.553Z,74.72
2022-09-20T03:38:52.597Z,74.41
2022-09-20T03:40:04.184Z,74.07
2022-09-20T03:41:30.224Z,73.98
2022-09-20T03:42:32.354Z,74.01
2022-09-20T03:43:58.837Z,74.44
2022-09-20T03:45:21.632Z,74.48
2022-09-20T03:46:30.405Z,74.27
2022-09-20T03:47:51.300Z,74.24
2022-09-20T03:49:16.316Z,74.25
2022-09-20T03:50:39.028Z,74.04
2022-09-20T03:51:50.736Z,74.40
2022-09-20T03:52:59.327Z,74.42
2022-09-20T03:54:16.956Z,74.48
2022-09-20T03:55:51.639Z,74.38
2022-09-20T03:57:34.424Z,74.56
2022-09-20T03:59:02.131Z,74.71
2022-09-20T04:00:19.536Z,74.24
2022-09-20T04:01:41.707Z,74.49
2022-09-20T04:03:18.929Z,74.64
2022-09-20T04:04:49.437Z,74.39
2022-09-20T04:06:07.225Z,74.05
2022-09-20T04:07:47.430Z,74.26
2022-09-20T04:09:22.210Z,74.37
2022-09-20T04:10:47.872Z,74.20
2022-09-20T04:12:08.834Z,74.41
2022-09-20T04:13:23.115Z,74.39
2022-09-20T04:14:45.715Z,73.72
2022-09-20T04:16:15.502Z,73.42
2022-09-20T04:17:27.336Z,73.13
2022-09-20T04:18:57.144Z,73.14
2022-09-20T04:20:09.293Z,73.19
2022-09-20T04:21:17.933Z,73.87
2022-09-20T04:22:22.160Z,74.52
2022-09-20T04:23:46.041Z,74.65
2022-09-20T04:24:57.791Z,74.47
2022-09-20T04:26:01.482Z,74.17
2022-09-20T04:27:07.285Z,74.26
2022-09-20T04:28:12.907Z,74.10
2022-09-20T04:29:24.359Z,73.91
2022-09-20T04:30:31.451Z,74.01
2022-09-20T04:31:40.225Z,74.08
2022-09-20T04:33:16.977Z,74.27
2022-09-20T04:34:40.949Z,74.24
2022-09-20T04:35:52.530Z,74.24
2022-09-20T04:37:00.766Z,74.28
2022-09-20T04:38:04.921Z,73.69
2022-09-20T04:39:13.350Z,73.70
2022-09-20T04:40:28.298Z,73.82
2022-09-20T04:41:50.999Z,73.87
2022-09-20T04:43:11.900Z,73.69
2022-09-20T04:44:26.055Z,73.60
2022-09-20T04:46:07.062Z,73.53
2022-09-20T04:47:15.620Z,73.58
2022-09-20T04:48:33.120Z,73.06
2022-09-20T04:49:47.957Z,73.13
2022-09-20T04:51:12.917Z,73.55
2022-09-20T04:52:39.540Z,73.65
2022-09-20T04:53:52.476Z,74.04
2022-09-20T04:55:03.981Z,74.08
2022-09-20T04:56:40.102Z,74.14
2022-09-20T04:58:19.605Z,74.05
2022-09-20T04:59:34.758Z,74.31
2022-09-20T05:00:52.210Z,74.36
2022-09-20T05:02:20.911Z,74.33
2022-09-20T05:03:58.594Z,74.25
2022-09-20T05:05:19.701Z,74.08
2022-09-20T05:06:42.161Z,74.06
2022-09-20T05:08:02.632Z,74.19
2022-09-20T05:09:29.555Z,74.21
2022-09-20T05:11:07.010Z,74.19
2022-09-20T05:12:34.000Z,74.18
2022-09-20T05:13:48.663Z,74.17
2022-09-20T05:15:06.298Z,74.37
2022-09-20T05:16:23.626Z,74.15
2022-09-20T05:17:32.149Z,74.08
2022-09-20T05:18:40.782Z,73.92
2022-09-20T05:20:15.871Z,73.70
2022-09-20T05:21:33.913Z,73.65
2022-09-20T05:22:57.893Z,73.16
2022-09-20T05:24:03.481Z,73.74
2022-09-20T05:25:24.124Z,73.52
2022-09-20T05:26:38.905Z,73.24
2022-09-20T05:28:10.001Z,73.59
2022-09-20T05:29:21.630Z,73.60
2022-09-20T05:30:46.240Z,73.27
2022-09-20T05:32:11.377Z,72.94
2022-09-20T05:33:17.575Z,73.09
2022-09-20T05:34:23.204Z,73.26
2022-09-20T05:37:29.665Z,73.48
2022-09-20T05:38:52.116Z,73.48
2022-09-20T05:40:00.742Z,73.50
2022-09-20T05:41:09.621Z,73.34
2022-09-20T05:42:24.142Z,73.28
2022-09-20T05:43:35.335Z,73.56
2022-09-20T05:44:49.596Z,73.79
2022-09-20T05:46:05.093Z,73.28
2022-09-20T05:47:20.054Z,73.22
2022-09-20T05:48:38.152Z,71.99
2022-09-20T05:50:18.110Z,72.05
2022-09-20T05:51:26.824Z,72.11
2022-09-20T05:52:42.227Z,73.00
2022-09-20T05:54:12.071Z,73.49
2022-09-20T05:55:50.078Z,73.91
2022-09-20T05:57:05.009Z,74.11
2022-09-20T05:58:42.896Z,74.11
2022-09-20T06:00:06.592Z,74.13
2022-09-20T06:01:33.517Z,73.99
2022-09-20T06:02:49.874Z,74.09
2022-09-20T06:04:16.650Z,73.97
2022-09-20T06:05:56.959Z,73.87
2022-09-20T06:08:39.021Z,74.32
2022-09-20T06:11:26.771Z,74.76
2022-09-20T06:12:35.601Z,74.80
2022-09-20T06:14:05.783Z,74.90
2022-09-20T06:15:17.448Z,75.02
2022-09-20T06:16:45.477Z,75.35
2022-09-20T06:18:20.893Z,75.48
2022-09-20T06:19:48.860Z,75.62
2022-09-20T06:21:15.044Z,75.59
2022-09-20T06:22:29.654Z,75.46
2022-09-20T06:23:34.689Z,75.30
2022-09-20T06:24:40.764Z,75.41
2022-09-20T06:25:46.380Z,75.14
2022-09-20T06:26:52.295Z,74.68
2022-09-20T06:28:16.182Z,74.30
2022-09-20T06:29:22.524Z,74.22
2022-09-20T06:30:31.120Z,74.10
2022-09-20T06:31:33.466Z,73.95
2022-09-20T06:32:39.030Z,74.06
2022-09-20T06:35:26.567Z,74.01
2022-09-20T06:36:31.812Z,73.90
2022-09-20T06:37:37.422Z,74.20
2022-09-20T06:38:49.178Z,74.23
2022-09-20T06:40:00.885Z,74.12
2022-09-20T06:41:04.625Z,74.21
2022-09-20T06:42:06.858Z,74.42
2022-09-20T06:43:09.277Z,74.15
2022-09-20T06:44:11.356Z,74.47
2022-09-20T06:45:13.550Z,74.42
2022-09-20T06:46:16.106Z,74.38
2022-09-20T06:47:21.874Z,74.08
2022-09-20T06:48:23.917Z,74.37
2022-09-20T06:49:26.202Z,74.37
2022-09-20T06:50:28.411Z,73.98
2022-09-20T06:51:36.244Z,73.88
2022-09-20T06:52:41.420Z,74.00
2022-09-20T06:53:44.026Z,73.75
2022-09-20T06:54:48.742Z,74.24
2022-09-20T06:55:50.804Z,74.39
2022-09-20T06:56:53.067Z,74.54
2022-09-20T06:57:55.413Z,74.45
2022-09-20T06:58:57.291Z,74.11
2022-09-20T06:59:59.741Z,73.98
2022-09-20T07:01:02.062Z,74.08
2022-09-20T07:02:04.312Z,73.96
2022-09-20T07:03:07.270Z,73.95
2022-09-20T07:04:09.208Z,73.98
2022-09-20T07:05:14.535Z,73.69
2022-09-20T07:06:16.897Z,73.71
2022-09-20T07:07:18.861Z,73.33
2022-09-20T07:08:21.828Z,73.20
2022-09-20T07:09:23.958Z,72.88
2022-09-20T07:10:28.611Z,72.82
2022-09-20T07:11:30.727Z,72.50
2022-09-20T07:12:32.418Z,72.22
2022-09-20T07:13:35.345Z,72.33
2022-09-20T07:14:38.112Z,72.55
2022-09-20T07:15:40.255Z,72.71
2022-09-20T07:16:42.166Z,72.81
2022-09-20T07:17:44.683Z,73.02
2022-09-20T07:18:47.980Z,72.70
2022-09-20T07:19:50.017Z,72.84
2022-09-20T07:20:52.119Z,73.04
2022-09-20T07:21:54.598Z,75.05
2022-09-20T07:22:56.702Z,74.17
2022-09-20T07:23:58.587Z,72.76
2022-09-20T07:25:01.036Z,72.76
2022-09-20T07:26:05.235Z,73.33
2022-09-20T07:27:07.157Z,73.32
2022-09-20T07:28:09.980Z,72.35
2022-09-20T07:29:11.915Z,71.76
2022-09-20T07:30:14.589Z,71.30
2022-09-20T07:31:19.354Z,72.15
2022-09-20T07:32:21.555Z,71.55
2022-09-20T07:33:23.440Z,71.49
2022-09-20T07:34:26.012Z,71.17
2022-09-20T07:35:27.971Z,70.98
2022-09-20T07:36:30.114Z,70.79
2022-09-20T07:37:37.105Z,70.66
2022-09-20T07:38:40.175Z,71.82
2022-09-20T07:39:42.099Z,70.70
2022-09-20T07:40:44.783Z,70.00
2022-09-20T07:41:47.125Z,69.59
2022-09-20T07:42:54.221Z,69.59
2022-09-20T07:43:54.222Z,70.09
2022-09-20T07:44:56.744Z,69.52
2022-09-20T07:45:59.630Z,70.52
2022-09-20T07:47:02.655Z,69.99
2022-09-20T07:48:07.713Z,69.99
2022-09-20T07:49:10.094Z,70.86
2022-09-20T07:50:12.577Z,70.46
2022-09-20T07:51:15.028Z,70.08
2022-09-20T07:52:18.014Z,70.06
2022-09-20T07:53:20.988Z,69.94
2022-09-20T07:54:24.389Z,70.50
2022-09-20T07:55:26.455Z,69.79
2022-09-20T07:56:28.641Z,71.32
2022-09-20T07:57:35.488Z,71.06
2022-09-20T07:58:37.809Z,69.41
2022-09-20T07:59:39.825Z,69.63
2022-09-20T08:00:42.011Z,70.12
2022-09-20T08:01:44.662Z,69.65
2022-09-20T08:02:46.740Z,69.65
2022-09-20T08:03:49.077Z,69.53
2022-09-20T08:04:51.020Z,69.91
2022-09-20T08:05:57.005Z,70.03
2022-09-20T08:07:00.105Z,69.66
2022-09-20T08:08:02.191Z,70.43
2022-09-20T08:09:08.978Z,70.30
2022-09-20T08:10:09.816Z,71.04
2022-09-20T08:14:34.237Z,71.15
2022-09-20T08:15:38.334Z,71.17
2022-09-20T08:16:43.774Z,71.04
2022-09-20T08:17:47.124Z,71.39
2022-09-20T08:18:51.871Z,71.33
2022-09-20T08:19:54.894Z,71.19
2022-09-20T08:21:05.286Z,71.25
2022-09-20T08:22:07.254Z,71.45
2022-09-20T08:23:22.973Z,71.45
2022-09-20T08:24:13.354Z,71.70
2022-09-20T08:25:15.495Z,71.89
2022-09-20T08:26:21.856Z,71.92
2022-09-20T08:27:24.272Z,72.31
2022-09-20T08:28:26.118Z,72.38
2022-09-20T08:29:29.759Z,72.51
2022-09-20T08:30:32.845Z,71.98
2022-09-20T08:31:38.063Z,71.81
2022-09-20T08:32:40.498Z,71.78
2022-09-20T08:33:43.051Z,71.63
2022-09-20T08:34:49.174Z,71.60
2022-09-20T08:35:49.571Z,72.01
2022-09-20T08:36:52.819Z,71.48
2022-09-20T08:37:57.583Z,71.23
2022-09-20T08:40:11.013Z,70.70
2022-09-20T08:41:25.776Z,70.60
2022-09-20T08:42:39.154Z,71.25
2022-09-20T08:43:45.629Z,70.04
2022-09-20T08:45:01.161Z,71.43
2022-09-20T08:46:05.484Z,71.62
2022-09-20T08:47:19.306Z,67.91
2022-09-20T08:48:25.466Z,66.40
2022-09-20T08:49:29.178Z,68.48
2022-09-20T08:50:32.944Z,67.34
2022-09-20T08:51:38.357Z,64.69
2022-09-20T08:52:42.487Z,69.74
2022-09-20T08:53:49.108Z,68.38
2022-09-20T08:54:50.887Z,66.75
2022-09-20T08:55:52.774Z,67.83
2022-09-20T08:56:55.067Z,66.04
2022-09-20T08:57:59.945Z,65.95
2022-09-20T08:59:03.921Z,68.78
2022-09-20T09:00:08.716Z,65.76
2022-09-20T09:01:17.896Z,67.41
2022-09-20T09:02:21.538Z,70.47
2022-09-20T09:03:25.696Z,68.48
2022-09-20T09:04:36.014Z,70.67
2022-09-20T09:05:44.652Z,70.45
2022-09-20T09:06:48.017Z,68.71
2022-09-20T09:07:51.716Z,69.05
2022-09-20T09:08:58.969Z,72.14
2022-09-20T09:10:01.016Z,68.59
2022-09-20T09:11:05.833Z,71.49
2022-09-20T09:12:27.992Z,72.84
2022-09-20T09:13:52.847Z,71.96
2022-09-20T09:14:59.030Z,70.95
2022-09-20T09:16:09.515Z,72.06
2022-09-20T09:17:20.679Z,71.99
2022-09-20T09:18:31.620Z,71.50
2022-09-20T09:19:34.160Z,71.69
2022-09-20T09:20:42.015Z,72.60
2022-09-20T09:21:43.950Z,72.01
2022-09-20T09:22:45.963Z,72.21
2022-09-20T09:24:08.917Z,71.76
2022-09-20T09:25:38.071Z,71.46
2022-09-20T09:26:42.009Z,71.07
2022-09-20T09:28:03.050Z,72.02
2022-09-20T09:30:28.410Z,72.33
2022-09-20T09:31:30.510Z,70.94
2022-09-20T09:32:32.555Z,72.31
2022-09-20T09:33:35.414Z,72.45
2022-09-20T09:34:37.480Z,72.92
2022-09-20T09:35:39.896Z,72.93
2022-09-20T09:36:45.048Z,73.05
2022-09-20T09:37:56.426Z,72.84
2022-09-20T09:39:17.033Z,73.28
2022-09-20T09:40:20.557Z,72.99
2022-09-20T09:41:27.571Z,72.91
2022-09-20T09:42:31.342Z,73.04
2022-09-20T09:43:35.892Z,73.12
2022-09-20T09:44:38.473Z,73.25
2022-09-20T09:45:40.723Z,72.42
2022-09-20T09:46:42.942Z,72.62
2022-09-20T09:47:44.834Z,72.04
2022-09-20T09:48:48.012Z,71.73
2022-09-20T09:50:01.616Z,71.77
2022-09-20T09:51:12.258Z,72.28
2022-09-20T09:52:17.573Z,73.43
2022-09-20T09:53:22.323Z,73.52
2022-09-20T09:54:26.712Z,73.75
2022-09-20T09:55:55.946Z,73.47
2022-09-20T09:57:04.803Z,73.22
2022-09-20T09:58:10.437Z,72.62
2022-09-20T09:59:45.323Z,72.53
2022-09-20T10:00:48.409Z,73.45
2022-09-20T10:02:01.356Z,72.60
2022-09-20T10:03:16.079Z,72.58
2022-09-20T10:04:28.207Z,73.35
2022-09-20T10:05:50.939Z,73.45
2022-09-20T10:07:03.064Z,73.25
2022-09-20T10:08:32.476Z,73.48
2022-09-20T10:09:50.369Z,73.17
2022-09-20T10:11:22.094Z,73.48
2022-09-20T10:12:33.917Z,73.83
2022-09-20T10:13:48.717Z,74.36
2022-09-20T10:15:18.611Z,74.94
2022-09-20T10:16:36.889Z,75.30
2022-09-20T10:17:48.835Z,75.07
2022-09-20T10:19:11.265Z,75.58
2022-09-20T10:20:35.962Z,76.00
2022-09-20T10:21:50.920Z,75.88
2022-09-20T10:24:41.606Z,76.41
2022-09-20T10:26:06.443Z,76.81
2022-09-20T10:27:24.516Z,76.95
2022-09-20T10:28:41.926Z,77.37
2022-09-20T10:30:02.596Z,77.31
2022-09-20T10:31:14.578Z,77.57
2022-09-20T10:32:24.334Z,77.53
2022-09-20T10:33:41.928Z,77.72
2022-09-20T10:35:02.709Z,78.27
2022-09-20T10:36:26.336Z,78.68
2022-09-20T10:37:51.706Z,78.43
2022-09-20T10:39:04.320Z,77.85
2022-09-20T10:40:10.271Z,78.06
2022-09-20T10:41:31.648Z,77.71
2022-09-20T10:42:46.663Z,77.14
2022-09-20T10:44:05.830Z,77.31
2022-09-20T10:46:57.878Z,77.61
2022-09-20T10:48:15.696Z,76.83
2022-09-20T10:49:21.861Z,76.95
2022-09-20T10:50:46.686Z,76.52
2022-09-20T10:52:24.646Z,77.09
2022-09-20T10:53:40.354Z,76.77
2022-09-20T10:54:54.930Z,77.33
2022-09-20T10:56:18.098Z,77.39
2022-09-20T10:57:47.458Z,77.42
2022-09-20T10:59:17.660Z,78.07
2022-09-20T11:00:54.300Z,78.39
2022-09-20T11:02:12.442Z,78.58
2022-09-20T11:03:27.525Z,78.10
2022-09-20T11:05:00.672Z,78.61
2022-09-20T11:06:38.996Z,78.49
2022-09-20T11:07:50.648Z,78.71
2022-09-20T11:08:56.247Z,79.01
2022-09-20T11:10:01.824Z,79.33
2022-09-20T11:11:19.203Z,79.59
2022-09-20T11:12:30.720Z,79.21
2022-09-20T11:13:42.019Z,78.70
2022-09-20T11:14:51.660Z,81.74
2022-09-20T11:15:57.264Z,81.59
2022-09-20T11:17:27.561Z,80.65
2022-09-20T11:18:48.341Z,80.75
2022-09-20T11:19:57.395Z,80.44
2022-09-20T11:21:19.841Z,81.22
2022-09-20T11:22:25.721Z,82.12
2022-09-20T11:23:36.985Z,82.33
2022-09-20T11:25:03.303Z,82.62
2022-09-20T11:26:09.267Z,82.52
2022-09-20T11:27:19.751Z,82.67
2022-09-20T11:28:28.921Z,82.84
2022-09-20T11:29:37.296Z,82.84
2022-09-20T11:32:17.693Z,82.71
2022-09-20T11:33:41.445Z,82.79
2022-09-20T11:34:52.688Z,82.81
2022-09-20T11:36:07.232Z,82.96
2022-09-20T11:37:09.773Z,83.17
2022-09-20T11:38:18.090Z,83.17
2022-09-20T11:39:40.658Z,83.22
2022-09-20T11:40:49.266Z,83.22
2022-09-20T11:41:55.305Z,83.06
2022-09-20T11:43:00.621Z,82.94
2022-09-20T11:44:09.170Z,82.64
2022-09-20T11:45:13.165Z,82.74
2022-09-20T11:46:31.695Z,83.04
2022-09-20T11:47:54.090Z,82.59
2022-09-20T11:48:48.275Z,82.00
2022-09-20T11:50:26.191Z,82.69
2022-09-20T11:51:48.859Z,82.77
2022-09-20T11:52:57.522Z,82.80
2022-09-20T11:54:09.541Z,82.74
2022-09-20T11:55:21.347Z,82.47
2022-09-20T11:56:29.902Z,82.42
2022-09-20T11:57:32.687Z,82.52
2022-09-20T11:58:56.348Z,82.02
2022-09-20T12:00:01.964Z,81.81
2022-09-20T12:01:09.485Z,82.00
2022-09-20T12:02:30.039Z,83.23
2022-09-20T12:03:35.884Z,83.64
2022-09-20T12:04:42.311Z,83.95
2022-09-20T12:05:45.536Z,83.96
2022-09-20T12:07:03.404Z,83.91
2022-09-20T12:08:20.131Z,82.88
2022-09-20T12:09:32.753Z,83.07
2022-09-20T12:10:38.816Z,82.46
2022-09-20T12:11:40.873Z,81.70
2022-09-20T12:12:46.524Z,81.94
2022-09-20T12:14:06.683Z,81.93
2022-09-20T12:15:35.879Z,81.72
2022-09-20T12:16:44.798Z,81.94
2022-09-20T12:17:50.488Z,81.38
2022-09-20T12:18:57.740Z,81.34
2022-09-20T12:19:59.819Z,81.33
2022-09-20T12:21:08.979Z,81.29
2022-09-20T12:22:17.952Z,81.44
2022-09-20T12:23:42.371Z,81.63
2022-09-20T12:24:45.702Z,81.05
2022-09-20T12:26:02.869Z,81.11
2022-09-20T12:27:29.505Z,80.70
2022-09-20T12:28:37.297Z,80.78
2022-09-20T12:30:04.134Z,80.75
2022-09-20T12:31:25.026Z,80.64
2022-09-20T12:33:59.249Z,81.24
2022-09-20T12:35:01.321Z,81.29
2022-09-20T12:36:15.550Z,82.19
2022-09-20T12:37:21.205Z,82.22
2022-09-20T12:38:29.337Z,82.43
2022-09-20T12:39:34.481Z,82.50
2022-09-20T12:40:40.283Z,82.41
2022-09-20T12:41:58.339Z,82.54
2022-09-20T12:43:00.781Z,81.17
2022-09-20T12:44:07.483Z,81.19
2022-09-20T12:45:19.587Z,81.18
2022-09-20T12:46:35.035Z,80.85
2022-09-20T12:47:37.769Z,80.79
2022-09-20T12:48:42.048Z,80.54
2022-09-20T12:49:47.645Z,80.20
2022-09-20T12:51:02.531Z,80.00
2022-09-20T12:52:05.112Z,79.81
2022-09-20T12:53:15.066Z,79.68
2022-09-20T12:54:17.090Z,79.73
2022-09-20T12:55:41.049Z,79.04
2022-09-20T12:56:43.951Z,78.80
2022-09-20T12:57:49.562Z,79.06
2022-09-20T12:58:53.322Z,79.20
2022-09-20T12:59:58.503Z,79.60
2022-09-20T13:01:10.673Z,79.51
2022-09-20T13:02:43.152Z,79.56
2022-09-20T13:03:47.172Z,79.66
2022-09-20T13:04:54.519Z,79.60
2022-09-20T13:06:09.367Z,79.59
2022-09-20T13:07:38.934Z,79.26
2022-09-20T13:09:03.737Z,79.21
2022-09-20T13:10:24.187Z,78.90
2022-09-20T13:11:30.186Z,78.66
2022-09-20T13:12:35.787Z,78.80
2022-09-20T13:13:51.204Z,79.12
2022-09-20T13:14:54.582Z,79.21
2022-09-20T13:15:58.792Z,78.93
2022-09-20T13:17:13.484Z,78.57
2022-09-20T13:18:17.656Z,78.69
2022-09-20T13:19:29.079Z,78.84
2022-09-20T13:20:33.365Z,79.20
2022-09-20T13:21:41.787Z,79.53
2022-09-20T13:22:44.663Z,79.51
2022-09-20T13:23:50.304Z,80.80
2022-09-20T13:24:59.619Z,81.55
2022-09-20T13:26:02.871Z,82.14
2022-09-20T13:27:09.230Z,83.05
2022-09-20T13:28:33.690Z,82.40
2022-09-20T13:29:41.473Z,82.45
2022-09-20T13:30:43.652Z,82.61
2022-09-20T13:31:46.107Z,82.84
2022-09-20T13:32:49.927Z,82.71
2022-09-20T13:33:54.236Z,82.47
2022-09-20T13:35:19.827Z,82.76
2022-09-20T13:36:25.472Z,82.20
2022-09-20T13:37:27.489Z,81.92
2022-09-20T13:38:31.108Z,81.69
2022-09-20T13:39:36.414Z,81.73
2022-09-20T13:40:44.693Z,81.32
2022-09-20T13:41:46.960Z,81.08
2022-09-20T13:42:52.442Z,81.46
2022-09-20T13:43:54.801Z,81.30
2022-09-20T13:44:57.689Z,81.40
2022-09-20T13:46:11.907Z,81.56
2022-09-20T13:47:30.328Z,81.42
2022-09-20T13:48:32.443Z,80.86
2022-09-20T13:49:34.280Z,81.37
2022-09-20T13:50:36.395Z,81.35
2022-09-20T13:51:40.642Z,81.70
2022-09-20T13:52:48.992Z,81.37
2022-09-20T13:53:50.921Z,81.33
2022-09-20T13:54:53.369Z,81.96
2022-09-20T13:55:55.601Z,81.81
2022-09-20T13:57:05.104Z,81.95
2022-09-20T13:58:11.279Z,81.86
2022-09-20T13:59:18.530Z,81.59
2022-09-20T14:00:19.260Z,82.23
2022-09-20T14:01:33.646Z,82.81
2022-09-20T14:02:37.809Z,82.84
2022-09-20T14:03:41.643Z,83.14
2022-09-20T14:04:43.776Z,82.72
2022-09-20T14:05:51.434Z,82.58
2022-09-20T14:06:57.965Z,82.91
2022-09-20T14:08:00.642Z,82.98
2022-09-20T14:09:10.852Z,82.72
2022-09-20T14:10:34.256Z,82.67
2022-09-20T14:11:38.189Z,82.55
2022-09-20T14:12:40.831Z,82.50
2022-09-20T14:13:47.199Z,82.38
2022-09-20T14:14:51.853Z,82.38
2022-09-20T14:15:54.108Z,82.38
2022-09-20T14:16:59.126Z,82.30
2022-09-20T14:18:02.708Z,82.84
2022-09-20T14:19:06.387Z,83.08
2022-09-20T14:20:12.900Z,83.39
2022-09-20T14:21:21.662Z,84.02
2022-09-20T14:22:28.035Z,84.32
2022-09-20T14:23:31.864Z,84.59
2022-09-20T14:24:36.231Z,84.54
2022-09-20T14:25:38.773Z,85.00
2022-09-20T14:26:43.132Z,85.18
2022-09-20T14:27:45.292Z,85.24
2022-09-20T14:28:48.374Z,85.36
2022-09-20T14:29:52.515Z,85.23
2022-09-20T14:30:58.786Z,85.02
2022-09-20T14:32:16.671Z,84.97
2022-09-20T14:33:21.037Z,85.05
2022-09-20T14:34:23.431Z,84.87
2022-09-20T14:35:25.611Z,84.50
2022-09-20T14:36:30.046Z,84.01
2022-09-20T14:37:47.993Z,84.07
2022-09-20T14:38:59.665Z,84.37
2022-09-20T14:40:18.107Z,84.42
2022-09-20T14:41:35.967Z,84.38
2022-09-20T14:42:44.768Z,84.48
2022-09-20T14:43:50.952Z,84.36
2022-09-20T14:44:53.409Z,85.12
2022-09-20T14:46:04.876Z,85.10
2022-09-20T14:47:14.894Z,85.17
2022-09-20T14:48:21.063Z,85.17
2022-09-20T14:49:32.495Z,85.47
2022-09-20T14:50:41.543Z,85.66
2022-09-20T14:51:43.808Z,85.94
2022-09-20T14:52:45.836Z,86.79
2022-09-20T14:53:51.462Z,87.19
2022-09-20T14:55:14.896Z,88.34
2022-09-20T14:56:33.247Z,87.79
2022-09-20T14:57:35.726Z,87.82
2022-09-20T14:59:04.050Z,87.89
2022-09-20T15:00:16.437Z,88.08
2022-09-20T15:01:25.184Z,87.94
2022-09-20T15:02:27.446Z,88.09
2022-09-20T15:03:39.246Z,88.12
2022-09-20T15:04:44.946Z,87.72
2022-09-20T15:05:49.676Z,87.96
2022-09-20T15:06:54.151Z,88.11
2022-09-20T15:07:58.074Z,87.99
2022-09-20T15:09:01.080Z,87.77
2022-09-20T15:10:03.898Z,87.87
2022-09-20T15:11:05.816Z,87.49
2022-09-20T15:12:19.845Z,87.53
2022-09-20T15:13:22.309Z,87.78
2022-09-20T15:14:26.503Z,88.08
2022-09-20T15:15:29.344Z,88.51
2022-09-20T15:16:31.934Z,88.46
2022-09-20T15:17:34.130Z,88.58
2022-09-20T15:18:41.832Z,88.35
2022-09-20T15:19:45.435Z,89.40
2022-09-20T15:20:49.613Z,89.61
2022-09-20T15:21:51.766Z,89.84
2022-09-20T15:22:54.756Z,89.70
2022-09-20T15:23:57.055Z,89.77
2022-09-20T15:25:00.075Z,89.96
2022-09-20T15:26:04.198Z,89.79
2022-09-20T15:27:07.301Z,89.87
2022-09-20T15:28:17.068Z,89.81
2022-09-20T15:29:19.237Z,89.77
2022-09-20T15:30:21.231Z,90.05
2022-09-20T15:31:24.039Z,89.55
2022-09-20T15:32:26.039Z,89.13
2022-09-20T15:33:31.287Z,89.05
2022-09-20T15:34:33.104Z,89.19
2022-09-20T15:35:36.205Z,89.57
2022-09-20T15:36:40.001Z,89.57
2022-09-20T15:37:41.839Z,90.53
2022-09-20T15:38:43.780Z,91.34
2022-09-20T15:39:47.274Z,91.34
2022-09-20T15:40:49.643Z,91.85